createdAt,value
2019-03-27T00:00:00.217Z,101595.80
2019-03-27T00:02:28.050Z,101589.31
2019-03-27T00:04:55.661Z,101591.59
2019-03-27T00:07:23.259Z,101596.87
2019-03-27T00:09:50.884Z,101594.73
2019-03-27T00:12:18.531Z,101597.88
2019-03-27T00:14:46.134Z,101598.39
2019-03-27T00:17:13.725Z,101585.35
2019-03-27T00:19:41.324Z,101581.03
2019-03-27T00:22:08.943Z,101571.44
2019-03-27T00:24:36.549Z,101581.95
2019-03-27T00:27:04.173Z,101573.27
2019-03-27T00:29:31.804Z,101574.17
2019-03-27T00:31:59.417Z,101564.58
2019-03-27T00:34:27.032Z,101561.97
2019-03-27T00:36:54.639Z,101557.17
2019-03-27T00:39:22.250Z,101556.33
2019-03-27T00:41:49.864Z,101554.58
2019-03-27T00:44:17.479Z,101559.38
2019-03-27T00:46:45.080Z,101549.78
2019-03-27T00:49:12.693Z,101542.81
2019-03-27T00:51:42.083Z,101536.73
2019-03-27T00:54:09.687Z,101527.11
2019-03-27T00:56:37.322Z,101538.05
2019-03-27T00:59:04.964Z,101535.86
2019-03-27T01:01:32.554Z,101521.91
2019-03-27T01:04:00.181Z,101525.83
2019-03-27T01:06:28.263Z,101520.59
2019-03-27T01:08:55.890Z,101524.52
2019-03-27T01:11:24.791Z,101521.47
2019-03-27T01:13:52.402Z,101525.83
2019-03-27T01:16:20.012Z,101528.92
2019-03-27T01:18:47.614Z,101521.47
2019-03-27T01:21:15.228Z,101518.37
2019-03-27T01:23:44.042Z,101515.77
2019-03-27T01:26:11.658Z,101514.02
2019-03-27T01:28:39.255Z,101513.11
2019-03-27T01:31:06.851Z,101517.00
2019-03-27T01:33:34.471Z,101520.89
2019-03-27T01:36:02.082Z,101516.52
2019-03-27T01:38:29.684Z,101523.47
2019-03-27T01:40:57.291Z,101518.63
2019-03-27T01:43:24.913Z,101521.64
2019-03-27T01:45:53.497Z,101524.22
2019-03-27T01:48:21.118Z,101522.88
2019-03-27T01:50:48.739Z,101521.97
2019-03-27T01:53:16.331Z,101522.80
2019-03-27T01:55:43.936Z,101523.19
2019-03-27T01:58:11.563Z,101522.23
2019-03-27T02:00:39.293Z,101525.69
2019-03-27T02:03:06.898Z,101533.05
2019-03-27T02:05:34.523Z,101529.04
2019-03-27T02:08:02.134Z,101529.38
2019-03-27T02:10:29.752Z,101527.55
2019-03-27T02:12:57.360Z,101522.71
2019-03-27T02:15:24.970Z,101523.10
2019-03-27T02:17:52.580Z,101518.30
2019-03-27T02:20:20.188Z,101520.39
2019-03-27T02:22:47.790Z,101517.73
2019-03-27T02:25:17.209Z,101517.25
2019-03-27T02:27:44.819Z,101509.31
2019-03-27T02:30:12.685Z,101504.48
2019-03-27T02:32:40.250Z,101505.34
2019-03-27T02:35:07.965Z,101500.11
2019-03-27T02:37:35.596Z,101497.50
2019-03-27T02:40:03.383Z,101495.28
2019-03-27T02:42:31.005Z,101493.96
2019-03-27T02:44:58.606Z,101500.06
2019-03-27T02:47:26.214Z,101502.63
2019-03-27T02:49:53.824Z,101493.87
2019-03-27T02:52:21.451Z,101499.05
2019-03-27T02:54:49.049Z,101496.38
2019-03-27T02:57:16.658Z,101485.45
2019-03-27T02:59:44.247Z,101493.66
2019-03-27T03:02:11.909Z,101496.67
2019-03-27T03:04:39.527Z,101494.44
2019-03-27T03:07:07.117Z,101489.16
2019-03-27T03:09:34.733Z,101481.28
2019-03-27T03:12:02.342Z,101484.31
2019-03-27T03:14:31.822Z,101486.44
2019-03-27T03:16:59.610Z,101485.02
2019-03-27T03:19:27.210Z,101486.33
2019-03-27T03:21:54.836Z,101481.49
2019-03-27T03:24:22.451Z,101487.58
2019-03-27T03:26:51.169Z,101483.61
2019-03-27T03:29:19.287Z,101480.52
2019-03-27T03:31:46.900Z,101480.56
2019-03-27T03:34:14.513Z,101477.95
2019-03-27T03:36:42.128Z,101484.97
2019-03-27T03:39:09.737Z,101487.59
2019-03-27T03:41:37.347Z,101488.45
2019-03-27T03:44:04.963Z,101488.88
2019-03-27T03:46:32.565Z,101487.14
2019-03-27T03:49:00.187Z,101491.50
2019-03-27T03:51:28.102Z,101489.38
2019-03-27T03:53:56.031Z,101494.12
2019-03-27T03:56:25.013Z,101488.84
2019-03-27T03:58:53.215Z,101495.84
2019-03-27T04:01:23.977Z,101490.63
2019-03-27T04:03:53.513Z,101494.17
2019-03-27T04:06:21.121Z,101491.60
2019-03-27T04:08:48.717Z,101484.22
2019-03-27T04:11:16.326Z,101489.06
2019-03-27T04:13:43.927Z,101483.89
2019-03-27T04:16:11.543Z,101484.86
2019-03-27T04:18:39.165Z,101488.88
2019-03-27T04:21:06.768Z,101490.67
2019-03-27T04:23:34.469Z,101485.07
2019-03-27T04:26:09.806Z,101487.73
2019-03-27T04:28:31.607Z,101496.48
2019-03-27T04:30:59.210Z,101497.36
2019-03-27T04:33:26.833Z,101490.87
2019-03-27T04:35:54.438Z,101493.53
2019-03-27T04:38:22.044Z,101494.02
2019-03-27T04:40:49.674Z,101487.92
2019-03-27T04:43:17.295Z,101496.69
2019-03-27T04:45:44.884Z,101494.12
2019-03-27T04:48:12.499Z,101496.81
2019-03-27T04:50:40.103Z,101494.65
2019-03-27T04:53:07.707Z,101491.25
2019-03-27T04:55:35.307Z,101487.37
2019-03-27T04:58:02.922Z,101490.03
2019-03-27T05:00:30.529Z,101492.73
2019-03-27T05:02:58.146Z,101488.41
2019-03-27T05:05:25.753Z,101490.64
2019-03-27T05:07:53.496Z,101491.13
2019-03-27T05:10:21.118Z,101484.19
2019-03-27T05:12:48.720Z,101484.67
2019-03-27T05:15:16.323Z,101484.71
2019-03-27T05:17:46.175Z,101488.71
2019-03-27T05:20:13.442Z,101484.39
2019-03-27T05:22:41.051Z,101481.81
2019-03-27T05:25:08.755Z,101482.29
2019-03-27T05:27:36.616Z,101484.94
2019-03-27T05:30:05.906Z,101485.42
2019-03-27T05:32:33.511Z,101485.02
2019-03-27T05:35:01.120Z,101481.59
2019-03-27T05:37:28.807Z,101477.70
2019-03-27T05:39:56.412Z,101483.84
2019-03-27T05:42:24.023Z,101486.97
2019-03-27T05:44:51.658Z,101486.57
2019-03-27T05:47:19.255Z,101497.52
2019-03-27T05:49:46.867Z,101498.38
2019-03-27T05:52:14.470Z,101495.30
2019-03-27T05:54:42.077Z,101492.64
2019-03-27T05:57:09.685Z,101495.27
2019-03-27T05:59:37.310Z,101504.02
2019-03-27T06:02:04.944Z,101502.74
2019-03-27T06:04:32.542Z,101500.09
2019-03-27T06:07:00.175Z,101499.22
2019-03-27T06:09:27.800Z,101497.04
2019-03-27T06:11:55.462Z,101497.47
2019-03-27T06:14:24.870Z,101501.87
2019-03-27T06:16:52.480Z,101493.14
2019-03-27T06:19:20.091Z,101497.98
2019-03-27T06:21:47.734Z,101489.69
2019-03-27T06:24:15.337Z,101491.50
2019-03-27T06:26:42.953Z,101489.34
2019-03-27T06:29:10.543Z,101493.34
2019-03-27T06:31:38.157Z,101493.86
2019-03-27T06:34:05.782Z,101482.98
2019-03-27T06:36:33.386Z,101478.23
2019-03-27T06:39:00.987Z,101483.09
2019-03-27T06:41:28.659Z,101484.89
2019-03-27T06:43:56.268Z,101480.13
2019-03-27T06:46:23.882Z,101481.48
2019-03-27T06:48:51.491Z,101480.66
2019-03-27T06:51:19.109Z,101473.25
2019-03-27T06:53:46.717Z,101479.85
2019-03-27T06:56:14.331Z,101477.70
2019-03-27T06:58:53.819Z,101472.52
2019-03-27T07:01:11.446Z,101483.45
2019-03-27T07:03:39.046Z,101482.16
2019-03-27T07:06:06.666Z,101484.36
2019-03-27T07:08:34.265Z,101493.13
2019-03-27T07:11:01.857Z,101492.73
2019-03-27T07:13:29.454Z,101487.07
2019-03-27T07:15:57.060Z,101488.38
2019-03-27T07:18:24.657Z,101481.80
2019-03-27T07:20:52.262Z,101494.48
2019-03-27T07:23:19.887Z,101509.80
2019-03-27T07:25:47.522Z,101518.53
2019-03-27T07:28:15.137Z,101514.64
2019-03-27T07:30:42.734Z,101514.22
2019-03-27T07:33:10.345Z,101519.48
2019-03-27T07:35:37.931Z,101519.07
2019-03-27T07:38:05.530Z,101513.86
2019-03-27T07:40:33.127Z,101520.88
2019-03-27T07:43:00.739Z,101523.09
2019-03-27T07:45:29.263Z,101514.84
2019-03-27T07:47:56.875Z,101521.41
2019-03-27T07:50:24.491Z,101522.75
2019-03-27T07:52:52.101Z,101515.78
2019-03-27T07:55:20.052Z,101523.22
2019-03-27T07:57:47.834Z,101525.84
2019-03-27T08:00:16.710Z,101526.28
2019-03-27T08:02:44.314Z,101522.33
2019-03-27T08:05:11.927Z,101522.31
2019-03-27T08:07:39.534Z,101521.80
2019-03-27T08:10:07.825Z,101526.43
2019-03-27T08:12:35.453Z,101527.02
2019-03-27T08:15:03.834Z,101528.75
2019-03-27T08:17:31.441Z,101528.28
2019-03-27T08:19:59.053Z,101531.67
2019-03-27T08:22:26.670Z,101535.48
2019-03-27T08:24:54.271Z,101539.66
2019-03-27T08:27:21.864Z,101543.46
2019-03-27T08:29:49.506Z,101528.72
2019-03-27T08:32:17.118Z,101531.77
2019-03-27T08:34:44.751Z,101544.16
2019-03-27T08:37:12.349Z,101550.59
2019-03-27T08:39:39.964Z,101543.82
2019-03-27T08:42:07.567Z,101543.81
2019-03-27T08:44:35.184Z,101560.34
2019-03-27T08:47:02.794Z,101564.84
2019-03-27T08:49:30.391Z,101572.39
2019-03-27T08:51:57.999Z,101568.73
2019-03-27T08:54:25.656Z,101567.27
2019-03-27T08:56:53.297Z,101561.63
2019-03-27T08:59:20.926Z,101563.67
2019-03-27T09:01:48.569Z,101567.27
2019-03-27T09:04:16.175Z,101570.95
2019-03-27T09:06:43.787Z,101579.96
2019-03-27T09:09:11.435Z,101583.55
2019-03-27T09:11:39.048Z,101581.85
2019-03-27T09:14:06.676Z,101591.81
2019-03-27T09:16:34.284Z,101584.58
2019-03-27T09:19:01.903Z,101587.90
2019-03-27T09:21:29.522Z,101590.27
2019-03-27T09:23:57.143Z,101589.37
2019-03-27T09:26:24.760Z,101586.91
2019-03-27T09:28:52.374Z,101596.33
2019-03-27T09:31:19.976Z,101598.56
2019-03-27T09:33:47.592Z,101602.14
2019-03-27T09:36:15.200Z,101597.30
2019-03-27T09:38:42.812Z,101601.27
2019-03-27T09:41:10.463Z,101601.27
2019-03-27T09:43:38.072Z,101604.48
2019-03-27T09:46:05.681Z,101608.55
2019-03-27T09:48:33.304Z,101614.45
2019-03-27T09:51:00.916Z,101611.92
2019-03-27T09:53:28.528Z,101605.77
2019-03-27T09:55:56.134Z,101606.28
2019-03-27T09:58:23.756Z,101611.10
2019-03-27T10:00:55.753Z,101616.44
2019-03-27T10:03:23.367Z,101622.61
2019-03-27T10:05:51.034Z,101631.00
2019-03-27T10:08:18.658Z,101642.02
2019-03-27T10:10:46.283Z,101643.39
2019-03-27T10:13:13.907Z,101635.94
2019-03-27T10:15:41.509Z,101628.95
2019-03-27T10:18:09.116Z,101636.03
2019-03-27T10:20:36.740Z,101637.37
2019-03-27T10:23:04.363Z,101640.37
2019-03-27T10:25:31.983Z,101642.47
2019-03-27T10:27:59.607Z,101647.19
2019-03-27T10:30:27.216Z,101640.84
2019-03-27T10:32:55.096Z,101643.41
2019-03-27T10:35:22.707Z,101632.76
2019-03-27T10:37:50.350Z,101630.09
2019-03-27T10:40:18.003Z,101626.01
2019-03-27T10:42:45.633Z,101628.07
2019-03-27T10:45:13.450Z,101628.91
2019-03-27T10:47:41.063Z,101631.48
2019-03-27T10:50:17.671Z,101629.95
2019-03-27T10:52:38.537Z,101624.03
2019-03-27T10:55:06.257Z,101631.31
2019-03-27T10:57:33.883Z,101628.63
2019-03-27T11:00:01.599Z,101635.77
2019-03-27T11:02:29.233Z,101641.93
2019-03-27T11:04:56.896Z,101641.36
2019-03-27T11:07:24.451Z,101643.39
2019-03-27T11:09:52.066Z,101643.23
2019-03-27T11:12:19.695Z,101649.77
2019-03-27T11:14:47.304Z,101651.58
2019-03-27T11:17:14.935Z,101650.34
2019-03-27T11:19:42.556Z,101644.91
2019-03-27T11:22:10.183Z,101648.67
2019-03-27T11:24:37.805Z,101643.75
2019-03-27T11:27:05.464Z,101652.52
2019-03-27T11:29:33.169Z,101654.70
2019-03-27T11:32:00.831Z,101656.72
2019-03-27T11:34:28.451Z,101655.28
2019-03-27T11:36:56.072Z,101662.27
2019-03-27T11:39:24.896Z,101669.26
2019-03-27T11:41:52.600Z,101666.97
2019-03-27T11:44:20.227Z,101667.70
2019-03-27T11:46:47.849Z,101664.91
2019-03-27T11:49:15.459Z,101668.73
2019-03-27T11:51:43.124Z,101674.48
2019-03-27T11:54:10.736Z,101678.50
2019-03-27T11:56:38.349Z,101670.30
2019-03-27T11:59:05.962Z,101674.73
2019-03-27T12:01:40.585Z,101679.92
2019-03-27T12:04:03.103Z,101684.78
2019-03-27T12:06:30.737Z,101678.20
2019-03-27T12:08:58.339Z,101676.88
2019-03-27T12:11:25.940Z,101673.72
2019-03-27T12:13:53.569Z,101682.89
2019-03-27T12:16:21.190Z,101673.14
2019-03-27T12:18:48.802Z,101677.83
2019-03-27T12:21:16.429Z,101682.11
2019-03-27T12:23:44.051Z,101670.47
2019-03-27T12:26:11.682Z,101675.14
2019-03-27T12:28:39.312Z,101670.70
2019-03-27T12:31:06.992Z,101679.53
2019-03-27T12:33:34.570Z,101681.77
2019-03-27T12:36:02.186Z,101684.07
2019-03-27T12:38:29.873Z,101683.36
2019-03-27T12:40:57.510Z,101679.86
2019-03-27T12:43:25.114Z,101682.51
2019-03-27T12:45:52.877Z,101686.48
2019-03-27T12:48:20.486Z,101683.30
2019-03-27T12:50:48.124Z,101673.11
2019-03-27T12:53:15.726Z,101674.39
2019-03-27T12:55:43.358Z,101678.20
2019-03-27T12:58:11.865Z,101683.61
2019-03-27T13:00:39.723Z,101686.62
2019-03-27T13:03:07.636Z,101688.11
2019-03-27T13:05:35.233Z,101696.06
2019-03-27T13:08:03.144Z,101696.77
2019-03-27T13:10:30.758Z,101702.40
2019-03-27T13:12:58.415Z,101690.42
2019-03-27T13:15:26.039Z,101696.91
2019-03-27T13:17:53.687Z,101701.13
2019-03-27T13:20:21.365Z,101701.45
2019-03-27T13:22:49.138Z,101700.08
2019-03-27T13:25:16.951Z,101703.88
2019-03-27T13:27:47.402Z,101704.55
2019-03-27T13:30:14.171Z,101708.25
2019-03-27T13:32:41.783Z,101714.55
2019-03-27T13:35:09.681Z,101709.81
2019-03-27T13:37:37.311Z,101712.41
2019-03-27T13:40:06.036Z,101710.98
2019-03-27T13:42:33.635Z,101709.64
2019-03-27T13:45:01.280Z,101710.50
2019-03-27T13:47:28.878Z,101713.55
2019-03-27T13:49:56.521Z,101708.55
2019-03-27T13:52:24.178Z,101712.86
2019-03-27T13:54:51.778Z,101716.38
2019-03-27T13:57:21.518Z,101717.31
2019-03-27T13:59:49.173Z,101725.38
2019-03-27T14:02:16.860Z,101717.02
2019-03-27T14:04:44.479Z,101725.80
2019-03-27T14:07:12.081Z,101721.47
2019-03-27T14:09:39.706Z,101721.75
2019-03-27T14:12:07.454Z,101724.41
2019-03-27T14:14:35.088Z,101727.06
2019-03-27T14:17:02.920Z,101732.75
2019-03-27T14:19:30.536Z,101733.91
2019-03-27T14:21:58.156Z,101737.81
2019-03-27T14:24:25.783Z,101741.61
2019-03-27T14:26:53.394Z,101740.17
2019-03-27T14:29:21.302Z,101739.64
2019-03-27T14:31:48.892Z,101745.34
2019-03-27T14:34:16.495Z,101745.80
2019-03-27T14:36:44.159Z,101753.66
2019-03-27T14:39:11.761Z,101745.30
2019-03-27T14:41:39.383Z,101748.73
2019-03-27T14:44:06.996Z,101748.94
2019-03-27T14:46:34.602Z,101751.94
2019-03-27T14:49:02.217Z,101756.31
2019-03-27T14:51:29.809Z,101757.03
2019-03-27T14:53:57.415Z,101751.39
2019-03-27T14:56:25.025Z,101755.30
2019-03-27T14:58:52.638Z,101754.26
2019-03-27T15:01:20.270Z,101758.17
2019-03-27T15:03:47.892Z,101758.90
2019-03-27T15:06:15.610Z,101757.42
2019-03-27T15:08:43.227Z,101756.42
2019-03-27T15:11:10.848Z,101765.80
2019-03-27T15:13:38.460Z,101760.88
2019-03-27T15:16:06.074Z,101769.19
2019-03-27T15:18:33.671Z,101767.65
2019-03-27T15:21:01.287Z,101770.90
2019-03-27T15:23:28.896Z,101768.63
2019-03-27T15:25:56.515Z,101764.05
2019-03-27T15:28:24.131Z,101763.52
2019-03-27T15:30:51.727Z,101774.00
2019-03-27T15:33:19.352Z,101779.16
2019-03-27T15:35:46.948Z,101777.68
2019-03-27T15:38:14.561Z,101783.69
2019-03-27T15:40:43.845Z,101785.48
2019-03-27T15:43:11.452Z,101790.56
2019-03-27T15:45:39.093Z,101797.84
2019-03-27T15:48:06.690Z,101799.33
2019-03-27T15:50:34.367Z,101805.25
2019-03-27T15:53:01.988Z,101793.97
2019-03-27T15:55:29.605Z,101794.96
2019-03-27T15:57:57.208Z,101794.09
2019-03-27T16:00:24.813Z,101787.45
2019-03-27T16:02:52.425Z,101793.63
2019-03-27T16:05:20.035Z,101802.19
2019-03-27T16:07:47.697Z,101809.79
2019-03-27T16:10:18.251Z,101808.99
2019-03-27T16:12:44.816Z,101807.30
2019-03-27T16:15:13.042Z,101810.90
2019-03-27T16:17:40.655Z,101813.22
2019-03-27T16:20:09.054Z,101807.52
2019-03-27T16:22:49.505Z,101815.94
2019-03-27T16:25:06.403Z,101807.52
2019-03-27T16:27:34.016Z,101811.95
2019-03-27T16:30:01.628Z,101814.61
2019-03-27T16:32:29.223Z,101816.92
2019-03-27T16:34:56.827Z,101816.55
2019-03-27T16:37:24.454Z,101817.99
2019-03-27T16:39:52.311Z,101815.45
2019-03-27T16:42:19.907Z,101820.37
2019-03-27T16:44:47.509Z,101824.01
2019-03-27T16:47:15.123Z,101820.56
2019-03-27T16:49:42.721Z,101825.98
2019-03-27T16:52:10.320Z,101834.48
2019-03-27T16:54:37.937Z,101834.59
2019-03-27T16:57:05.540Z,101841.80
2019-03-27T16:59:33.145Z,101844.13
2019-03-27T17:02:00.747Z,101842.48
2019-03-27T17:04:28.347Z,101849.28
2019-03-27T17:06:55.963Z,101846.28
2019-03-27T17:09:23.566Z,101838.90
2019-03-27T17:11:51.201Z,101854.45
2019-03-27T17:14:18.802Z,101852.83
2019-03-27T17:16:46.609Z,101859.16
2019-03-27T17:19:14.230Z,101855.24
2019-03-27T17:21:41.839Z,101857.59
2019-03-27T17:24:09.467Z,101862.12
2019-03-27T17:26:37.064Z,101863.59
2019-03-27T17:29:04.752Z,101860.66
2019-03-27T17:31:32.449Z,101862.09
2019-03-27T17:34:00.209Z,101869.72
2019-03-27T17:36:27.853Z,101870.72
2019-03-27T17:38:55.446Z,101878.76
2019-03-27T17:41:23.066Z,101873.63
2019-03-27T17:43:50.689Z,101879.46
2019-03-27T17:46:18.323Z,101886.20
2019-03-27T17:48:45.929Z,101892.94
2019-03-27T17:51:13.576Z,101892.59
2019-03-27T17:53:41.204Z,101904.20
2019-03-27T17:56:08.814Z,101909.64
2019-03-27T17:58:36.428Z,101911.06
2019-03-27T18:01:04.582Z,101919.58
2019-03-27T18:03:32.222Z,101923.64
2019-03-27T18:05:59.818Z,101921.11
2019-03-27T18:08:27.441Z,101918.97
2019-03-27T18:10:55.050Z,101926.98
2019-03-27T18:13:22.654Z,101927.04
2019-03-27T18:15:50.331Z,101929.70
2019-03-27T18:18:17.936Z,101931.95
2019-03-27T18:20:45.546Z,101941.23
2019-03-27T18:23:13.177Z,101946.59
2019-03-27T18:25:40.783Z,101946.16
2019-03-27T18:28:08.386Z,101943.59
2019-03-27T18:30:36.012Z,101944.47
2019-03-27T18:33:03.620Z,101942.75
2019-03-27T18:35:31.245Z,101947.66
2019-03-27T18:37:58.888Z,101946.36
2019-03-27T18:40:26.501Z,101947.30
2019-03-27T18:42:54.130Z,101948.67
2019-03-27T18:45:21.743Z,101957.98
2019-03-27T18:47:49.453Z,101956.27
2019-03-27T18:50:17.052Z,101953.22
2019-03-27T18:52:44.671Z,101947.97
2019-03-27T18:55:25.526Z,101942.69
2019-03-27T18:57:41.835Z,101941.83
2019-03-27T19:00:10.142Z,101948.47
2019-03-27T19:02:37.694Z,101950.66
2019-03-27T19:05:06.015Z,101954.20
2019-03-27T19:07:33.639Z,101951.61
2019-03-27T19:10:01.263Z,101956.91
2019-03-27T19:12:29.172Z,101953.38
2019-03-27T19:14:57.018Z,101947.69
2019-03-27T19:17:24.710Z,101959.11
2019-03-27T19:19:52.333Z,101949.02
2019-03-27T19:22:20.042Z,101947.70
2019-03-27T19:24:47.655Z,101957.38
2019-03-27T19:27:15.263Z,101956.95
2019-03-27T19:29:45.007Z,101963.53
2019-03-27T19:32:12.416Z,101966.19
2019-03-27T19:34:40.045Z,101959.17
2019-03-27T19:37:07.770Z,101962.24
2019-03-27T19:39:35.417Z,101966.65
2019-03-27T19:42:04.142Z,101962.70
2019-03-27T19:44:31.811Z,101964.88
2019-03-27T19:46:59.418Z,101971.48
2019-03-27T19:49:27.348Z,101969.73
2019-03-27T19:51:54.976Z,101969.30
2019-03-27T19:54:27.330Z,101967.11
2019-03-27T19:56:53.249Z,101971.93
2019-03-27T19:59:21.035Z,101971.50
2019-03-27T20:01:48.657Z,101976.34
2019-03-27T20:04:17.467Z,101972.37
2019-03-27T20:06:46.915Z,101978.13
2019-03-27T20:09:14.539Z,101977.69
2019-03-27T20:11:42.246Z,101978.56
2019-03-27T20:14:09.981Z,101976.37
2019-03-27T20:16:37.694Z,101978.14
2019-03-27T20:19:05.336Z,101983.39
2019-03-27T20:21:35.912Z,101980.75
2019-03-27T20:24:03.732Z,101983.80
2019-03-27T20:26:31.370Z,101976.31
2019-03-27T20:28:59.015Z,101982.91
2019-03-27T20:31:26.639Z,101993.00
2019-03-27T20:33:54.369Z,101997.42
2019-03-27T20:36:21.984Z,101997.42
2019-03-27T20:38:49.634Z,101996.09
2019-03-27T20:41:17.271Z,101994.36
2019-03-27T20:43:44.876Z,102001.38
2019-03-27T20:46:24.383Z,101997.86
2019-03-27T20:48:42.699Z,101999.18
2019-03-27T20:51:10.487Z,102001.39
2019-03-27T20:53:38.135Z,102011.05
2019-03-27T20:56:05.911Z,102016.80
2019-03-27T20:58:33.537Z,102020.32
2019-03-27T21:01:01.139Z,102016.81
2019-03-27T21:03:28.746Z,102012.86
2019-03-27T21:05:56.356Z,102009.75
2019-03-27T21:08:23.955Z,102016.80
2019-03-27T21:10:51.591Z,102023.41
2019-03-27T21:13:19.223Z,102027.80
2019-03-27T21:15:46.836Z,102025.59
2019-03-27T21:18:14.451Z,102030.01
2019-03-27T21:20:42.091Z,102033.52
2019-03-27T21:23:09.735Z,102036.59
2019-03-27T21:25:37.320Z,102033.51
2019-03-27T21:28:04.949Z,102040.98
2019-03-27T21:30:32.552Z,102041.42
2019-03-27T21:33:00.151Z,102038.80
2019-03-27T21:35:27.763Z,102038.79
2019-03-27T21:37:55.467Z,102036.14
2019-03-27T21:40:23.079Z,102031.73
2019-03-27T21:42:50.703Z,102044.02
2019-03-27T21:45:18.322Z,102050.17
2019-03-27T21:47:45.923Z,102050.61
2019-03-27T21:50:13.527Z,102053.67
2019-03-27T21:52:41.147Z,102051.48
2019-03-27T21:55:21.854Z,102053.66
2019-03-27T21:57:38.527Z,102050.57
2019-03-27T22:00:07.226Z,102061.13
2019-03-27T22:02:34.836Z,102061.53
2019-03-27T22:05:02.667Z,102062.80
2019-03-27T22:07:30.488Z,102065.41
2019-03-27T22:09:58.098Z,102069.34
2019-03-27T22:12:25.708Z,102066.67
2019-03-27T22:14:53.315Z,102070.59
2019-03-27T22:17:21.061Z,102074.52
2019-03-27T22:19:48.746Z,102081.50
2019-03-27T22:22:16.347Z,102077.96
2019-03-27T22:24:43.951Z,102079.67
2019-03-27T22:27:11.550Z,102085.33
2019-03-27T22:29:39.155Z,102083.12
2019-03-27T22:32:06.751Z,102092.30
2019-03-27T22:34:34.354Z,102087.89
2019-03-27T22:37:01.950Z,102097.08
2019-03-27T22:39:29.549Z,102097.52
2019-03-27T22:41:57.158Z,102092.23
2019-03-27T22:44:24.756Z,102086.08
2019-03-27T22:46:52.357Z,102098.33
2019-03-27T22:49:19.992Z,102096.57
2019-03-27T22:51:47.610Z,102092.19
2019-03-27T22:54:15.246Z,102084.30
2019-03-27T22:56:42.852Z,102083.42
2019-03-27T22:59:10.452Z,102090.41
2019-03-27T23:01:44.199Z,102094.36
2019-03-27T23:04:11.877Z,102102.22
2019-03-27T23:06:39.493Z,102105.23
2019-03-27T23:09:07.208Z,102096.42
2019-03-27T23:11:34.816Z,102101.61
2019-03-27T23:14:02.435Z,102102.06
2019-03-27T23:16:30.048Z,102104.25
2019-03-27T23:18:57.645Z,102104.25
2019-03-27T23:21:25.264Z,102115.20
2019-03-27T23:23:52.875Z,102113.86
2019-03-27T23:26:20.518Z,102119.55
2019-03-27T23:28:48.142Z,102118.23
2019-03-27T23:31:15.771Z,102102.47
2019-03-27T23:33:43.385Z,102109.04
2019-03-27T23:36:10.987Z,102107.69
2019-03-27T23:38:38.595Z,102112.52
2019-03-27T23:41:06.206Z,102107.66
2019-03-27T23:43:33.815Z,102100.69
2019-03-27T23:46:01.447Z,102108.13
2019-03-27T23:48:29.073Z,102099.77
2019-03-27T23:50:56.670Z,102101.06
2019-03-27T23:53:24.290Z,102110.70
2019-03-27T23:55:51.923Z,102111.98
2019-03-27T23:58:21.318Z,102115.89
